createdAt,value
2023-09-07T00:00:19.391Z,68.06
2023-09-07T00:01:22.874Z,67.72
2023-09-07T00:02:38.687Z,68.16
2023-09-07T00:03:43.388Z,67.78
2023-09-07T00:04:46.528Z,68.20
2023-09-07T00:05:49.281Z,68.84
2023-09-07T00:06:52.332Z,68.26
2023-09-07T00:07:55.346Z,67.48
2023-09-07T00:09:02.701Z,68.56
2023-09-07T00:10:07.909Z,68.44
2023-09-07T00:11:11.405Z,68.36
2023-09-07T00:12:14.342Z,68.70
2023-09-07T00:13:17.352Z,68.55
2023-09-07T00:14:20.252Z,69.19
2023-09-07T00:15:23.393Z,68.60
2023-09-07T00:16:26.836Z,68.21
2023-09-07T00:17:29.920Z,68.16
2023-09-07T00:18:33.825Z,68.85
2023-09-07T00:19:38.078Z,68.77
2023-09-07T00:20:41.816Z,68.55
2023-09-07T00:21:44.757Z,69.55
2023-09-07T00:22:47.805Z,68.81
2023-09-07T00:23:50.533Z,68.96
2023-09-07T00:24:53.469Z,68.81
2023-09-07T00:25:56.429Z,68.52
2023-09-07T00:27:00.017Z,68.36
2023-09-07T00:28:03.052Z,68.11
2023-09-07T00:29:07.608Z,69.16
2023-09-07T00:30:11.405Z,68.43
2023-09-07T00:31:14.751Z,68.30
2023-09-07T00:32:17.663Z,68.01
2023-09-07T00:33:20.540Z,68.36
2023-09-07T00:34:23.495Z,68.85
2023-09-07T00:35:27.378Z,68.93
2023-09-07T00:36:30.319Z,69.04
2023-09-07T00:37:34.312Z,68.65
2023-09-07T00:38:37.343Z,68.66
2023-09-07T00:39:40.145Z,69.25
2023-09-07T00:40:46.493Z,68.94
2023-09-07T00:41:49.691Z,68.51
2023-09-07T00:42:52.703Z,68.26
2023-09-07T00:43:55.585Z,68.05
2023-09-07T00:44:58.731Z,68.29
2023-09-07T00:46:01.749Z,68.63
2023-09-07T00:47:06.594Z,68.19
2023-09-07T00:48:10.054Z,68.65
2023-09-07T00:49:13.977Z,68.23
2023-09-07T00:50:17.800Z,68.13
2023-09-07T00:51:21.069Z,68.45
2023-09-07T00:52:24.690Z,68.15
2023-09-07T00:53:29.071Z,68.14
2023-09-07T00:54:32.030Z,68.54
2023-09-07T00:55:36.836Z,68.49
2023-09-07T00:56:40.240Z,68.24
2023-09-07T00:57:44.066Z,67.97
2023-09-07T00:58:47.586Z,68.10
2023-09-07T00:59:50.612Z,68.00
2023-09-07T01:00:53.526Z,67.97
2023-09-07T01:01:56.587Z,68.33
2023-09-07T01:02:59.640Z,68.09
2023-09-07T01:04:04.609Z,67.66
2023-09-07T01:05:08.260Z,68.06
2023-09-07T01:06:21.317Z,67.80
2023-09-07T01:07:44.320Z,68.11
2023-09-07T01:08:57.802Z,67.99
2023-09-07T01:10:03.735Z,68.39
2023-09-07T01:11:17.623Z,68.45
2023-09-07T01:12:21.314Z,68.39
2023-09-07T01:13:24.179Z,68.10
2023-09-07T01:14:27.287Z,68.07
2023-09-07T01:15:30.253Z,67.97
2023-09-07T01:16:35.891Z,67.57
2023-09-07T01:17:41.549Z,68.28
2023-09-07T01:18:46.365Z,67.98
2023-09-07T01:19:51.439Z,67.98
2023-09-07T01:20:56.736Z,68.12
2023-09-07T01:22:01.082Z,68.58
2023-09-07T01:23:05.702Z,68.84
2023-09-07T01:24:11.901Z,68.23
2023-09-07T01:25:15.224Z,68.20
2023-09-07T01:26:18.594Z,68.10
2023-09-07T01:27:22.183Z,68.46
2023-09-07T01:28:25.593Z,68.07
2023-09-07T01:29:30.486Z,68.59
2023-09-07T01:30:40.021Z,68.80
2023-09-07T01:31:43.875Z,68.78
2023-09-07T01:32:46.862Z,68.41
2023-09-07T01:33:49.772Z,68.20
2023-09-07T01:34:58.289Z,68.38
2023-09-07T01:36:01.799Z,68.67
2023-09-07T01:37:05.185Z,68.56
2023-09-07T01:38:08.277Z,68.61
2023-09-07T01:39:13.250Z,68.42
2023-09-07T01:40:16.476Z,68.83
2023-09-07T01:41:19.358Z,68.77
2023-09-07T01:42:23.224Z,68.83
2023-09-07T01:43:26.228Z,68.83
2023-09-07T01:44:31.074Z,68.54
2023-09-07T01:45:34.193Z,68.70
2023-09-07T01:46:37.342Z,68.27
2023-09-07T01:47:40.707Z,68.24
2023-09-07T01:48:43.947Z,68.49
2023-09-07T01:49:46.895Z,68.57
2023-09-07T01:50:55.019Z,68.51
2023-09-07T01:51:58.258Z,68.29
2023-09-07T01:53:01.180Z,68.50
2023-09-07T01:54:04.613Z,68.32
2023-09-07T01:55:07.992Z,69.10
2023-09-07T01:56:11.513Z,68.29
2023-09-07T01:57:14.645Z,68.33
2023-09-07T01:58:17.479Z,68.54
2023-09-07T01:59:20.615Z,68.52
2023-09-07T02:00:23.822Z,68.17
2023-09-07T02:01:31.483Z,67.95
2023-09-07T02:02:34.382Z,67.76
2023-09-07T02:03:38.054Z,67.36
2023-09-07T02:04:45.047Z,67.06
2023-09-07T02:05:48.465Z,66.85
2023-09-07T02:06:51.347Z,67.10
2023-09-07T02:07:54.302Z,67.42
2023-09-07T02:08:57.211Z,67.33
2023-09-07T02:10:00.217Z,67.71
2023-09-07T02:11:03.985Z,67.55
2023-09-07T02:12:07.787Z,67.20
2023-09-07T02:13:10.741Z,67.08
2023-09-07T02:14:14.323Z,67.69
2023-09-07T02:15:17.515Z,67.39
2023-09-07T02:16:20.688Z,67.55
2023-09-07T02:17:23.921Z,68.33
2023-09-07T02:18:27.348Z,68.64
2023-09-07T02:19:30.303Z,68.52
2023-09-07T02:20:34.164Z,69.16
2023-09-07T02:21:37.145Z,69.31
2023-09-07T02:22:40.733Z,68.44
2023-09-07T02:23:44.018Z,68.52
2023-09-07T02:24:47.126Z,69.24
2023-09-07T02:25:50.040Z,69.52
2023-09-07T02:26:53.238Z,69.56
2023-09-07T02:27:56.435Z,69.26
2023-09-07T02:28:59.423Z,69.47
2023-09-07T02:30:06.300Z,69.07
2023-09-07T02:31:09.533Z,69.39
2023-09-07T02:32:13.003Z,69.42
2023-09-07T02:33:16.003Z,69.36
2023-09-07T02:34:18.827Z,69.36
2023-09-07T02:35:21.891Z,69.19
2023-09-07T02:36:24.760Z,68.87
2023-09-07T02:37:27.656Z,68.85
2023-09-07T02:38:31.776Z,69.39
2023-09-07T02:39:35.819Z,69.49
2023-09-07T02:40:43.853Z,69.53
2023-09-07T02:41:47.516Z,69.07
2023-09-07T02:42:51.910Z,68.58
2023-09-07T02:43:54.730Z,69.07
2023-09-07T02:44:57.522Z,68.95
2023-09-07T02:46:00.435Z,69.09
2023-09-07T02:47:03.405Z,69.08
2023-09-07T02:48:07.575Z,69.49
2023-09-07T02:49:11.836Z,68.96
2023-09-07T02:50:15.945Z,68.58
2023-09-07T02:51:19.508Z,69.39
2023-09-07T02:52:22.436Z,69.26
2023-09-07T02:53:25.944Z,69.53
2023-09-07T02:54:28.950Z,69.51
2023-09-07T02:55:31.873Z,69.68
2023-09-07T02:56:34.979Z,69.78
2023-09-07T02:57:38.133Z,69.72
2023-09-07T02:58:41.185Z,69.96
2023-09-07T02:59:44.298Z,69.74
2023-09-07T03:00:48.555Z,69.19
2023-09-07T03:01:55.178Z,69.27
2023-09-07T03:02:58.151Z,69.00
2023-09-07T03:04:01.485Z,68.88
2023-09-07T03:05:05.750Z,68.84
2023-09-07T03:06:17.663Z,69.03
2023-09-07T03:07:23.804Z,69.42
2023-09-07T03:08:26.972Z,69.18
2023-09-07T03:09:29.887Z,69.20
2023-09-07T03:10:32.786Z,69.23
2023-09-07T03:11:36.311Z,69.54
2023-09-07T03:12:39.588Z,69.58
2023-09-07T03:13:43.956Z,69.91
2023-09-07T03:14:46.983Z,69.33
2023-09-07T03:15:49.909Z,69.28
2023-09-07T03:16:52.943Z,69.55
2023-09-07T03:17:56.084Z,69.24
2023-09-07T03:18:59.112Z,69.03
2023-09-07T03:20:14.857Z,69.60
2023-09-07T03:21:21.263Z,69.82
2023-09-07T03:22:24.890Z,69.74
2023-09-07T03:23:30.199Z,69.78
2023-09-07T03:24:33.836Z,69.57
2023-09-07T03:25:37.005Z,69.43
2023-09-07T03:26:39.959Z,69.59
2023-09-07T03:27:43.225Z,69.74
2023-09-07T03:28:48.361Z,70.03
2023-09-07T03:29:53.129Z,69.65
2023-09-07T03:30:57.525Z,69.63
2023-09-07T03:32:01.611Z,69.16
2023-09-07T03:33:05.432Z,68.94
2023-09-07T03:34:11.572Z,68.52
2023-09-07T03:35:14.557Z,68.06
2023-09-07T03:36:17.679Z,68.51
2023-09-07T03:37:20.589Z,68.88
2023-09-07T03:38:24.247Z,69.26
2023-09-07T03:39:27.820Z,69.63
2023-09-07T03:40:31.051Z,69.13
2023-09-07T03:41:33.896Z,68.74
2023-09-07T03:42:37.320Z,68.08
2023-09-07T03:43:41.038Z,68.07
2023-09-07T03:44:44.421Z,68.06
2023-09-07T03:45:47.510Z,68.10
2023-09-07T03:46:50.617Z,67.78
2023-09-07T03:47:53.582Z,67.36
2023-09-07T03:48:57.096Z,67.64
2023-09-07T03:50:00.531Z,68.06
2023-09-07T03:51:08.154Z,67.78
2023-09-07T03:52:11.612Z,68.51
2023-09-07T03:53:14.563Z,69.55
2023-09-07T03:54:17.473Z,68.68
2023-09-07T03:55:23.004Z,69.06
2023-09-07T03:56:26.445Z,69.68
2023-09-07T03:57:29.744Z,69.62
2023-09-07T03:58:33.219Z,69.81
2023-09-07T03:59:36.281Z,69.37
2023-09-07T04:00:43.061Z,70.10
2023-09-07T04:01:46.683Z,71.06
2023-09-07T04:02:49.900Z,71.96
2023-09-07T04:03:53.101Z,71.77
2023-09-07T04:04:56.701Z,71.30
2023-09-07T04:05:59.915Z,70.31
2023-09-07T04:07:03.205Z,70.48
2023-09-07T04:08:07.240Z,70.90
2023-09-07T04:09:10.147Z,71.21
2023-09-07T04:10:13.599Z,71.80
2023-09-07T04:11:16.624Z,72.19
2023-09-07T04:12:19.837Z,72.03
2023-09-07T04:13:23.466Z,71.65
2023-09-07T04:14:26.482Z,72.24
2023-09-07T04:15:29.850Z,71.78
2023-09-07T04:16:33.159Z,71.75
2023-09-07T04:17:41.876Z,72.37
2023-09-07T04:18:45.734Z,72.51
2023-09-07T04:19:48.919Z,72.07
2023-09-07T04:20:51.996Z,72.30
2023-09-07T04:21:55.183Z,71.62
2023-09-07T04:22:58.177Z,72.05
2023-09-07T04:24:01.231Z,71.82
2023-09-07T04:25:04.570Z,71.90
2023-09-07T04:26:13.337Z,71.97
2023-09-07T04:27:16.589Z,72.27
2023-09-07T04:28:20.203Z,72.25
2023-09-07T04:29:23.158Z,71.93
2023-09-07T04:30:26.232Z,72.03
2023-09-07T04:31:29.363Z,72.56
2023-09-07T04:32:32.404Z,72.06
2023-09-07T04:33:35.489Z,71.53
2023-09-07T04:34:38.673Z,71.38
2023-09-07T04:35:41.589Z,71.38
2023-09-07T04:36:44.647Z,71.23
2023-09-07T04:37:47.515Z,70.55
2023-09-07T04:38:50.534Z,70.29
2023-09-07T04:39:54.923Z,70.64
2023-09-07T04:41:08.571Z,70.13
2023-09-07T04:42:11.637Z,70.48
2023-09-07T04:43:15.433Z,70.11
2023-09-07T04:44:18.224Z,70.47
2023-09-07T04:45:21.609Z,70.46
2023-09-07T04:46:24.915Z,70.22
2023-09-07T04:47:28.332Z,70.30
2023-09-07T04:48:31.735Z,69.42
2023-09-07T04:49:35.109Z,69.70
2023-09-07T04:50:37.898Z,69.33
2023-09-07T04:51:40.958Z,69.17
2023-09-07T04:52:43.934Z,68.65
2023-09-07T04:53:46.896Z,68.84
2023-09-07T04:54:50.106Z,68.42
2023-09-07T04:55:54.250Z,68.27
2023-09-07T04:56:57.263Z,67.84
2023-09-07T04:58:00.032Z,68.20
2023-09-07T04:59:02.909Z,68.07
2023-09-07T05:00:09.331Z,67.63
2023-09-07T05:01:13.743Z,67.10
2023-09-07T05:02:18.668Z,66.98
2023-09-07T05:03:21.755Z,66.62
2023-09-07T05:04:24.749Z,66.07
2023-09-07T05:05:27.610Z,65.99
2023-09-07T05:06:31.241Z,66.09
2023-09-07T05:07:34.090Z,65.43
2023-09-07T05:08:36.900Z,65.62
2023-09-07T05:09:39.727Z,65.32
2023-09-07T05:10:43.157Z,63.94
2023-09-07T05:11:46.089Z,63.76
2023-09-07T05:12:48.860Z,62.91
2023-09-07T05:13:52.051Z,62.50
2023-09-07T05:14:54.878Z,62.03
2023-09-07T05:16:00.551Z,61.70
2023-09-07T05:17:03.594Z,61.41
2023-09-07T05:18:06.964Z,61.21
2023-09-07T05:19:09.785Z,60.51
2023-09-07T05:20:13.321Z,60.21
2023-09-07T05:21:16.836Z,60.02
2023-09-07T05:22:21.060Z,60.18
2023-09-07T05:23:25.733Z,60.23
2023-09-07T05:24:28.480Z,59.31
2023-09-07T05:25:31.198Z,58.80
2023-09-07T05:26:33.963Z,58.84
2023-09-07T05:27:37.201Z,57.79
2023-09-07T05:28:42.989Z,57.94
2023-09-07T05:29:46.654Z,57.08
2023-09-07T05:30:49.973Z,57.00
2023-09-07T05:31:52.693Z,56.50
2023-09-07T05:32:55.352Z,55.90
2023-09-07T05:33:58.252Z,56.20
2023-09-07T05:35:01.457Z,56.05
2023-09-07T05:36:04.620Z,55.68
2023-09-07T05:37:07.463Z,55.71
2023-09-07T05:38:10.687Z,56.39
2023-09-07T05:39:14.443Z,57.10
2023-09-07T05:40:17.299Z,57.05
2023-09-07T05:41:20.467Z,57.49
2023-09-07T05:42:23.385Z,57.11
2023-09-07T05:43:26.349Z,56.07
2023-09-07T05:44:29.320Z,55.49
2023-09-07T05:45:41.626Z,55.22
2023-09-07T05:46:46.087Z,54.89
2023-09-07T05:47:49.042Z,54.74
2023-09-07T05:48:52.587Z,54.65
2023-09-07T05:49:55.544Z,54.60
2023-09-07T05:50:58.703Z,54.83
2023-09-07T05:52:01.670Z,54.32
2023-09-07T05:53:05.631Z,53.69
2023-09-07T05:54:09.572Z,53.45
2023-09-07T05:55:12.833Z,53.38
2023-09-07T05:56:15.640Z,53.17
2023-09-07T05:57:18.611Z,53.34
2023-09-07T05:58:21.526Z,53.01
2023-09-07T05:59:24.754Z,51.87
2023-09-07T06:00:27.911Z,52.00
2023-09-07T06:01:30.819Z,51.29
2023-09-07T06:02:34.053Z,50.66
2023-09-07T06:03:37.271Z,50.71
2023-09-07T06:04:40.689Z,50.94
2023-09-07T06:05:43.892Z,50.68
2023-09-07T06:06:47.200Z,50.62
2023-09-07T06:07:50.526Z,50.27
2023-09-07T06:08:53.741Z,49.70
2023-09-07T06:09:56.916Z,50.23
2023-09-07T06:11:01.139Z,49.51
2023-09-07T06:12:04.845Z,48.08
2023-09-07T06:13:08.256Z,47.32
2023-09-07T06:14:11.232Z,46.93
2023-09-07T06:15:14.411Z,46.45
2023-09-07T06:16:17.723Z,45.29
2023-09-07T06:17:20.946Z,45.29
2023-09-07T06:18:23.954Z,45.14
2023-09-07T06:19:26.798Z,44.31
2023-09-07T06:20:29.738Z,44.45
2023-09-07T06:21:35.043Z,44.56
2023-09-07T06:22:38.103Z,44.69
2023-09-07T06:23:41.112Z,44.42
2023-09-07T06:24:44.160Z,44.22
2023-09-07T06:25:47.331Z,44.12
2023-09-07T06:26:51.171Z,43.86
2023-09-07T06:27:54.375Z,44.38
2023-09-07T06:28:58.453Z,43.93
2023-09-07T06:30:02.445Z,44.42
2023-09-07T06:31:05.924Z,44.04
2023-09-07T06:32:09.151Z,43.02
2023-09-07T06:33:12.181Z,42.93
2023-09-07T06:34:15.284Z,42.77
2023-09-07T06:35:19.839Z,42.52
2023-09-07T06:36:33.622Z,41.14
2023-09-07T06:37:43.310Z,42.42
2023-09-07T06:38:47.814Z,41.64
2023-09-07T06:39:50.649Z,40.72
2023-09-07T06:40:53.478Z,40.54
2023-09-07T06:41:57.271Z,40.92
2023-09-07T06:43:07.627Z,39.99
2023-09-07T06:44:10.282Z,40.00
2023-09-07T06:45:13.383Z,40.18
2023-09-07T06:46:16.478Z,41.87
2023-09-07T06:47:19.318Z,39.75
2023-09-07T06:48:22.120Z,42.88
2023-09-07T06:49:24.937Z,42.78
2023-09-07T06:50:27.668Z,43.67
2023-09-07T06:51:32.473Z,41.37
2023-09-07T06:52:35.266Z,41.18
2023-09-07T06:53:55.850Z,39.61
2023-09-07T06:54:59.306Z,39.07
2023-09-07T06:56:04.464Z,39.08
2023-09-07T06:57:10.632Z,39.39
2023-09-07T06:58:13.541Z,42.47
2023-09-07T06:59:16.753Z,42.43
2023-09-07T07:00:19.553Z,42.17
2023-09-07T07:01:22.491Z,40.46
2023-09-07T07:02:25.321Z,40.26
2023-09-07T07:03:31.796Z,39.62
2023-09-07T07:04:34.878Z,38.21
2023-09-07T07:05:37.650Z,38.91
2023-09-07T07:06:40.527Z,38.53
2023-09-07T07:07:43.445Z,40.20
2023-09-07T07:08:46.331Z,38.48
2023-09-07T07:09:49.161Z,37.10
2023-09-07T07:10:52.021Z,38.59
2023-09-07T07:11:54.894Z,36.73
2023-09-07T07:12:57.608Z,37.36
2023-09-07T07:14:00.384Z,39.67
2023-09-07T07:15:03.628Z,38.01
2023-09-07T07:16:07.568Z,37.96
2023-09-07T07:17:10.677Z,38.74
2023-09-07T07:18:13.556Z,37.68
2023-09-07T07:19:16.413Z,36.55
2023-09-07T07:20:19.148Z,37.21
2023-09-07T07:21:22.052Z,38.69
2023-09-07T07:22:24.865Z,38.10
2023-09-07T07:23:28.503Z,38.44
2023-09-07T07:24:31.268Z,37.49
2023-09-07T07:25:35.292Z,38.09
2023-09-07T07:26:38.996Z,37.75
2023-09-07T07:27:41.903Z,36.87
2023-09-07T07:28:44.692Z,37.11
2023-09-07T07:29:47.617Z,37.04
2023-09-07T07:30:50.489Z,38.24
2023-09-07T07:31:53.199Z,37.49
2023-09-07T07:32:56.040Z,38.27
2023-09-07T07:33:59.724Z,36.44
2023-09-07T07:35:02.547Z,35.88
2023-09-07T07:36:06.575Z,38.11
2023-09-07T07:37:09.544Z,37.66
2023-09-07T07:38:14.820Z,38.65
2023-09-07T07:39:18.792Z,37.53
2023-09-07T07:40:21.620Z,38.11
2023-09-07T07:41:24.647Z,38.23
2023-09-07T07:42:27.634Z,39.27
2023-09-07T07:43:30.846Z,36.05
2023-09-07T07:44:33.838Z,37.27
2023-09-07T07:45:39.428Z,37.50
2023-09-07T07:46:42.389Z,38.04
2023-09-07T07:47:45.261Z,37.95
2023-09-07T07:48:48.394Z,39.16
2023-09-07T07:49:51.132Z,39.22
2023-09-07T07:50:53.785Z,39.18
2023-09-07T07:51:58.674Z,37.57
2023-09-07T07:53:01.773Z,37.72
2023-09-07T07:54:04.789Z,37.08
2023-09-07T07:55:08.520Z,36.85
2023-09-07T07:56:19.282Z,37.27
2023-09-07T07:57:24.251Z,39.72
2023-09-07T07:58:27.556Z,39.08
2023-09-07T07:59:30.403Z,38.64
2023-09-07T08:00:33.143Z,38.69
2023-09-07T08:01:35.906Z,39.59
2023-09-07T08:02:39.842Z,39.41
2023-09-07T08:03:45.637Z,38.78
2023-09-07T08:04:48.653Z,40.46
2023-09-07T08:05:51.642Z,38.48
2023-09-07T08:06:59.283Z,38.69
2023-09-07T08:08:02.673Z,38.23
2023-09-07T08:09:05.639Z,38.45
2023-09-07T08:10:08.990Z,38.72
2023-09-07T08:11:11.977Z,38.34
2023-09-07T08:12:16.267Z,38.38
2023-09-07T08:13:20.413Z,38.96
2023-09-07T08:14:23.529Z,39.46
2023-09-07T08:15:27.467Z,40.17
2023-09-07T08:16:30.932Z,39.78
2023-09-07T08:17:34.342Z,38.78
2023-09-07T08:18:37.752Z,38.36
2023-09-07T08:19:40.637Z,39.25
2023-09-07T08:20:43.580Z,39.64
2023-09-07T08:21:48.245Z,39.79
2023-09-07T08:22:51.344Z,39.37
2023-09-07T08:23:54.329Z,40.04
2023-09-07T08:24:57.631Z,39.76
2023-09-07T08:26:01.358Z,41.41
2023-09-07T08:27:04.873Z,39.83
2023-09-07T08:28:08.233Z,39.61
2023-09-07T08:29:12.086Z,40.20
2023-09-07T08:30:18.824Z,40.74
2023-09-07T08:31:23.579Z,39.19
2023-09-07T08:32:26.699Z,39.60
2023-09-07T08:33:36.847Z,39.21
2023-09-07T08:34:41.538Z,38.18
2023-09-07T08:35:45.483Z,37.33
2023-09-07T08:36:48.678Z,37.14
2023-09-07T08:37:51.480Z,35.95
2023-09-07T08:38:55.072Z,35.30
2023-09-07T08:39:58.945Z,36.08
2023-09-07T08:41:07.108Z,36.40
2023-09-07T08:42:10.919Z,37.22
2023-09-07T08:43:14.289Z,36.63
2023-09-07T08:44:21.942Z,37.45
2023-09-07T08:45:33.226Z,37.45
2023-09-07T08:46:37.804Z,37.12
2023-09-07T08:47:41.412Z,37.29
2023-09-07T08:48:48.043Z,36.43
2023-09-07T08:49:51.676Z,37.38
2023-09-07T08:50:56.037Z,36.39
2023-09-07T08:52:01.566Z,36.41
2023-09-07T08:53:04.889Z,37.16
2023-09-07T08:54:09.619Z,35.92
2023-09-07T08:55:14.720Z,36.70
2023-09-07T08:56:22.675Z,35.90
2023-09-07T08:57:26.456Z,36.82
2023-09-07T08:58:29.482Z,36.34
2023-09-07T08:59:32.562Z,37.20
2023-09-07T09:00:35.701Z,36.47
2023-09-07T09:01:38.630Z,36.60
2023-09-07T09:02:41.656Z,36.65
2023-09-07T09:03:45.108Z,37.64
2023-09-07T09:04:47.922Z,37.24
2023-09-07T09:05:52.752Z,38.00
2023-09-07T09:06:55.581Z,37.57
2023-09-07T09:08:06.925Z,36.79
2023-09-07T09:09:10.720Z,38.46
2023-09-07T09:10:13.434Z,37.87
2023-09-07T09:11:18.214Z,36.88
2023-09-07T09:12:20.973Z,35.05
2023-09-07T09:13:31.484Z,35.37
2023-09-07T09:14:34.743Z,35.21
2023-09-07T09:15:37.559Z,35.96
2023-09-07T09:16:40.245Z,36.09
2023-09-07T09:17:44.379Z,36.59
2023-09-07T09:18:57.803Z,36.39
2023-09-07T09:20:00.600Z,35.44
2023-09-07T09:21:03.573Z,35.19
2023-09-07T09:22:07.616Z,36.37
2023-09-07T09:23:13.836Z,36.50
2023-09-07T09:24:19.423Z,34.99
2023-09-07T09:25:23.255Z,35.72
2023-09-07T09:26:29.647Z,35.29
2023-09-07T09:27:34.679Z,35.22
2023-09-07T09:28:37.751Z,34.75
2023-09-07T09:29:41.398Z,35.63
2023-09-07T09:30:44.431Z,36.24
2023-09-07T09:31:47.114Z,35.88
2023-09-07T09:32:50.474Z,35.85
2023-09-07T09:33:53.554Z,35.96
2023-09-07T09:34:56.355Z,35.95
2023-09-07T09:35:59.374Z,36.61
2023-09-07T09:37:07.666Z,36.35
2023-09-07T09:38:11.441Z,36.29
2023-09-07T09:39:25.355Z,35.63
2023-09-07T09:40:28.409Z,35.27
2023-09-07T09:41:35.071Z,33.67
2023-09-07T09:42:39.854Z,33.19
2023-09-07T09:43:42.804Z,33.41
2023-09-07T09:44:46.290Z,35.24
2023-09-07T09:45:53.336Z,35.18
2023-09-07T09:46:57.632Z,34.22
2023-09-07T09:48:01.688Z,33.78
2023-09-07T09:49:06.533Z,34.12
2023-09-07T09:50:12.559Z,33.18
2023-09-07T09:51:16.511Z,32.83
2023-09-07T09:52:19.274Z,32.93
2023-09-07T09:53:22.651Z,33.25
2023-09-07T09:54:27.737Z,32.14
2023-09-07T09:55:32.697Z,30.37
2023-09-07T09:56:35.538Z,32.26
2023-09-07T09:57:38.552Z,34.25
2023-09-07T09:58:41.746Z,34.20
2023-09-07T09:59:45.307Z,33.63
2023-09-07T10:00:56.740Z,32.58
2023-09-07T10:02:01.932Z,33.31
2023-09-07T10:03:16.398Z,32.80
2023-09-07T10:04:20.380Z,33.38
2023-09-07T10:05:26.859Z,33.77
2023-09-07T10:06:33.521Z,34.79
2023-09-07T10:07:49.271Z,33.18
2023-09-07T10:09:18.450Z,32.41
2023-09-07T10:10:21.512Z,32.89
2023-09-07T10:11:35.954Z,33.90
2023-09-07T10:12:55.028Z,34.71
2023-09-07T10:14:04.931Z,31.80
2023-09-07T10:15:08.417Z,32.11
2023-09-07T10:16:11.509Z,32.21
2023-09-07T10:17:24.027Z,32.80
2023-09-07T10:18:36.598Z,34.10
2023-09-07T10:19:39.519Z,33.45
2023-09-07T10:21:00.956Z,34.57
2023-09-07T10:22:04.710Z,34.15
2023-09-07T10:23:07.530Z,33.69
2023-09-07T10:24:10.638Z,33.09
2023-09-07T10:25:23.861Z,34.89
2023-09-07T10:26:26.701Z,33.33
2023-09-07T10:27:39.338Z,32.76
2023-09-07T10:28:42.869Z,31.93
2023-09-07T10:29:55.452Z,34.06
2023-09-07T10:31:33.515Z,34.28
2023-09-07T10:32:43.182Z,33.48
2023-09-07T10:33:47.852Z,32.93
2023-09-07T10:34:51.621Z,33.02
2023-09-07T10:35:54.397Z,32.86
2023-09-07T10:36:57.946Z,32.18
2023-09-07T10:38:03.824Z,31.65
2023-09-07T10:39:07.845Z,33.22
2023-09-07T10:40:12.947Z,33.67
2023-09-07T10:41:15.837Z,31.89
2023-09-07T10:42:26.359Z,32.05
2023-09-07T10:43:32.240Z,32.78
2023-09-07T10:44:35.040Z,32.40
2023-09-07T10:45:38.004Z,31.15
2023-09-07T10:46:41.504Z,30.93
2023-09-07T10:47:46.936Z,30.57
2023-09-07T10:48:54.297Z,30.42
2023-09-07T10:49:58.883Z,32.56
2023-09-07T10:51:01.734Z,31.76
2023-09-07T10:52:05.396Z,30.64
2023-09-07T10:53:08.086Z,29.80
2023-09-07T10:54:25.061Z,31.42
2023-09-07T10:55:29.152Z,30.90
2023-09-07T10:56:31.826Z,31.89
2023-09-07T10:57:44.327Z,30.93
2023-09-07T10:58:47.560Z,32.43
2023-09-07T10:59:50.289Z,31.51
2023-09-07T11:00:55.251Z,32.22
2023-09-07T11:02:06.226Z,32.86
2023-09-07T11:03:11.004Z,32.64
2023-09-07T11:04:14.328Z,32.19
2023-09-07T11:05:17.149Z,32.05
2023-09-07T11:06:25.695Z,33.16
2023-09-07T11:07:30.058Z,32.44
2023-09-07T11:08:34.063Z,32.04
2023-09-07T11:09:42.688Z,30.96
2023-09-07T11:10:45.432Z,31.56
2023-09-07T11:11:48.710Z,30.98
2023-09-07T11:12:52.848Z,30.38
2023-09-07T11:13:58.674Z,30.06
2023-09-07T11:15:01.906Z,31.49
2023-09-07T11:16:10.183Z,31.90
2023-09-07T11:17:12.981Z,32.14
2023-09-07T11:18:22.683Z,31.83
2023-09-07T11:19:25.487Z,31.46
2023-09-07T11:20:29.064Z,31.58
2023-09-07T11:21:33.970Z,30.98
2023-09-07T11:22:46.186Z,30.46
2023-09-07T11:23:58.759Z,30.64
2023-09-07T11:25:01.928Z,29.76
2023-09-07T11:26:06.837Z,30.18
2023-09-07T11:27:10.921Z,31.58
2023-09-07T11:28:13.569Z,30.87
2023-09-07T11:29:18.050Z,30.78
2023-09-07T11:30:20.692Z,30.45
2023-09-07T11:31:23.395Z,31.22
2023-09-07T11:32:34.068Z,32.28
2023-09-07T11:33:36.833Z,31.86
2023-09-07T11:34:54.974Z,33.28
2023-09-07T11:36:00.848Z,32.92
2023-09-07T11:37:06.453Z,33.96
2023-09-07T11:38:12.137Z,32.85
2023-09-07T11:39:15.124Z,34.04
2023-09-07T11:40:18.091Z,34.25
2023-09-07T11:41:20.748Z,34.25
2023-09-07T11:42:23.808Z,33.44
2023-09-07T11:43:26.621Z,33.96
2023-09-07T11:44:29.267Z,34.70
2023-09-07T11:45:33.517Z,35.26
2023-09-07T11:46:37.071Z,35.91
2023-09-07T11:47:40.209Z,36.05
2023-09-07T11:48:43.133Z,35.73
2023-09-07T11:49:45.907Z,34.22
2023-09-07T11:50:48.599Z,35.11
2023-09-07T11:51:51.464Z,33.48
2023-09-07T11:52:54.097Z,34.15
2023-09-07T11:53:56.802Z,33.18
2023-09-07T11:54:59.601Z,34.73
2023-09-07T11:56:02.405Z,34.95
2023-09-07T11:57:05.601Z,34.09
2023-09-07T11:58:08.321Z,34.79
2023-09-07T11:59:11.212Z,35.49
2023-09-07T12:00:15.919Z,35.73
2023-09-07T12:01:18.595Z,36.10
2023-09-07T12:02:22.698Z,36.51
2023-09-07T12:03:25.611Z,36.30
2023-09-07T12:04:28.432Z,36.96
2023-09-07T12:05:31.691Z,36.41
2023-09-07T12:06:34.490Z,36.66
2023-09-07T12:07:38.000Z,35.83
2023-09-07T12:08:58.720Z,36.66
2023-09-07T12:10:01.542Z,34.91
2023-09-07T12:11:04.319Z,35.28
2023-09-07T12:12:07.551Z,34.51
2023-09-07T12:13:10.395Z,33.03
2023-09-07T12:14:13.254Z,31.99
2023-09-07T12:15:16.805Z,29.77
2023-09-07T12:16:19.611Z,26.78
2023-09-07T12:17:22.719Z,26.49
2023-09-07T12:18:25.584Z,26.59
2023-09-07T12:19:28.519Z,26.93
2023-09-07T12:20:31.290Z,28.26
2023-09-07T12:21:34.139Z,28.88
2023-09-07T12:22:40.010Z,31.02
2023-09-07T12:23:42.765Z,31.48
2023-09-07T12:24:45.733Z,32.60
2023-09-07T12:25:52.453Z,32.19
2023-09-07T12:26:55.196Z,33.27
2023-09-07T12:27:57.890Z,32.59
2023-09-07T12:29:00.670Z,31.83
2023-09-07T12:30:09.573Z,32.08
2023-09-07T12:31:13.271Z,32.40
2023-09-07T12:32:16.746Z,31.90
2023-09-07T12:33:19.431Z,32.34
2023-09-07T12:34:22.097Z,32.65
2023-09-07T12:35:24.808Z,32.60
2023-09-07T12:36:31.175Z,32.11
2023-09-07T12:37:34.048Z,31.89
2023-09-07T12:38:37.363Z,31.38
2023-09-07T12:39:40.135Z,31.84
2023-09-07T12:40:42.853Z,31.46
2023-09-07T12:41:45.593Z,31.51
2023-09-07T12:42:48.362Z,32.05
2023-09-07T12:43:51.108Z,31.70
2023-09-07T12:44:53.808Z,32.09
2023-09-07T12:45:56.856Z,31.04
2023-09-07T12:46:59.531Z,31.79
2023-09-07T12:48:02.410Z,31.32
2023-09-07T12:49:05.636Z,31.86
2023-09-07T12:50:08.745Z,32.52
2023-09-07T12:51:11.449Z,31.34
2023-09-07T12:52:14.257Z,31.51
2023-09-07T12:53:17.357Z,32.49
2023-09-07T12:54:20.161Z,31.95
2023-09-07T12:55:23.229Z,32.30
2023-09-07T12:56:26.001Z,32.21
2023-09-07T12:57:28.726Z,32.69
2023-09-07T12:58:31.486Z,32.86
2023-09-07T12:59:34.246Z,32.41
2023-09-07T13:00:36.898Z,33.35
2023-09-07T13:01:39.687Z,32.95
2023-09-07T13:02:43.829Z,33.31
2023-09-07T13:03:46.604Z,31.98
2023-09-07T13:04:49.421Z,32.96
2023-09-07T13:05:52.185Z,32.75
2023-09-07T13:06:54.969Z,32.80
2023-09-07T13:07:59.345Z,31.51
2023-09-07T13:09:02.074Z,32.60
2023-09-07T13:10:06.581Z,32.66
2023-09-07T13:11:09.167Z,32.71
2023-09-07T13:12:11.928Z,32.54
2023-09-07T13:13:14.716Z,32.93
2023-09-07T13:14:17.357Z,32.46
2023-09-07T13:15:20.152Z,32.68
2023-09-07T13:16:23.011Z,33.14
2023-09-07T13:17:26.586Z,33.52
2023-09-07T13:18:29.265Z,33.65
2023-09-07T13:19:31.905Z,33.47
2023-09-07T13:20:34.590Z,33.25
2023-09-07T13:21:37.214Z,32.60
2023-09-07T13:22:41.816Z,33.02
2023-09-07T13:23:47.860Z,32.46
2023-09-07T13:24:50.485Z,33.37
2023-09-07T13:25:53.352Z,32.95
2023-09-07T13:26:57.029Z,33.30
2023-09-07T13:28:01.513Z,32.76
2023-09-07T13:29:04.691Z,33.09
2023-09-07T13:30:13.265Z,33.33
2023-09-07T13:31:16.074Z,32.96
2023-09-07T13:32:19.655Z,32.99
2023-09-07T13:33:22.278Z,33.52
2023-09-07T13:34:25.045Z,32.55
2023-09-07T13:35:27.942Z,32.73
2023-09-07T13:36:30.676Z,32.88
2023-09-07T13:37:33.960Z,33.05
2023-09-07T13:38:36.728Z,32.74
2023-09-07T13:39:39.374Z,32.70
2023-09-07T13:40:42.177Z,33.53
2023-09-07T13:41:44.738Z,33.38
2023-09-07T13:42:51.007Z,33.38
2023-09-07T13:43:55.178Z,33.51
2023-09-07T13:44:57.828Z,33.81
2023-09-07T13:46:01.453Z,34.66
2023-09-07T13:47:05.631Z,34.15